createdAt,value
2022-08-29T00:00:18.228Z,4.57
2022-08-29T00:02:50.515Z,4.13
2022-08-29T00:05:19.615Z,4.40
2022-08-29T00:07:51.341Z,4.07
2022-08-29T00:10:18.365Z,4.50
2022-08-29T00:12:45.514Z,4.68
2022-08-29T00:15:14.039Z,4.07
2022-08-29T00:17:41.050Z,4.25
2022-08-29T00:20:13.075Z,4.00
2022-08-29T00:22:40.272Z,4.45
2022-08-29T00:25:07.615Z,4.65
2022-08-29T00:27:34.795Z,5.22
2022-08-29T00:30:01.528Z,4.78
2022-08-29T00:32:34.915Z,4.97
2022-08-29T00:35:08.452Z,3.88
2022-08-29T00:37:35.381Z,3.85
2022-08-29T00:40:05.317Z,4.93
2022-08-29T00:42:31.909Z,5.57
2022-08-29T00:44:58.484Z,5.10
2022-08-29T00:47:33.013Z,5.13
2022-08-29T00:50:01.292Z,4.38
2022-08-29T00:52:39.749Z,4.97
2022-08-29T00:55:12.628Z,5.80
2022-08-29T00:57:44.286Z,5.07
2022-08-29T01:00:13.449Z,5.88
2022-08-29T01:02:41.557Z,5.47
2022-08-29T01:05:10.676Z,5.80
2022-08-29T01:07:38.142Z,5.30
2022-08-29T01:10:13.131Z,5.07
2022-08-29T01:12:40.872Z,4.75
2022-08-29T01:15:12.868Z,5.13
2022-08-29T01:17:45.093Z,4.97
2022-08-29T01:20:40.410Z,4.72
2022-08-29T01:23:34.689Z,5.30
2022-08-29T01:26:03.967Z,5.78
2022-08-29T01:28:40.357Z,5.57
2022-08-29T01:31:11.645Z,5.68
2022-08-29T01:33:48.478Z,4.78
2022-08-29T01:36:21.703Z,4.25
2022-08-29T01:38:49.787Z,4.90
2022-08-29T01:41:18.387Z,4.35
2022-08-29T01:43:48.713Z,4.30
2022-08-29T01:46:18.355Z,4.15
2022-08-29T01:48:46.777Z,5.25
2022-08-29T01:51:14.755Z,3.47
2022-08-29T01:53:41.733Z,4.80
2022-08-29T01:56:22.164Z,4.60
2022-08-29T01:58:51.261Z,4.93
2022-08-29T02:01:22.330Z,4.13
2022-08-29T02:03:52.208Z,4.93
2022-08-29T02:06:19.487Z,3.90
2022-08-29T02:08:46.335Z,4.45
2022-08-29T02:11:13.782Z,3.55
2022-08-29T02:13:48.935Z,3.95
2022-08-29T02:16:16.197Z,4.20
2022-08-29T02:18:43.146Z,4.75
2022-08-29T02:21:12.404Z,4.75
2022-08-29T02:23:40.181Z,5.00
2022-08-29T02:26:06.853Z,4.38
2022-08-29T02:28:35.912Z,4.97
2022-08-29T02:31:03.358Z,4.70
2022-08-29T02:33:31.331Z,5.05
2022-08-29T02:35:59.375Z,5.45
2022-08-29T02:38:26.983Z,4.75
2022-08-29T02:40:53.964Z,4.32
2022-08-29T02:43:21.610Z,4.32
2022-08-29T02:45:48.203Z,4.70
2022-08-29T02:48:15.351Z,4.88
2022-08-29T02:50:50.770Z,4.30
2022-08-29T02:53:19.639Z,4.00
2022-08-29T02:55:47.993Z,3.80
2022-08-29T02:58:15.860Z,4.22
2022-08-29T03:00:43.085Z,3.90
2022-08-29T03:03:09.992Z,4.25
2022-08-29T03:05:37.229Z,4.45
2022-08-29T03:08:08.290Z,4.97
2022-08-29T03:10:36.303Z,4.53
2022-08-29T03:13:03.998Z,4.00
2022-08-29T03:15:30.788Z,4.57
2022-08-29T03:17:58.619Z,4.85
2022-08-29T03:20:26.193Z,5.75
2022-08-29T03:22:54.158Z,4.63
2022-08-29T03:25:22.784Z,4.22
2022-08-29T03:27:49.486Z,3.70
2022-08-29T03:30:17.518Z,4.95
2022-08-29T03:32:45.365Z,4.63
2022-08-29T03:35:13.543Z,5.28
2022-08-29T03:37:40.792Z,5.07
2022-08-29T03:40:09.245Z,4.63
2022-08-29T03:42:36.091Z,4.68
2022-08-29T03:45:05.771Z,4.70
2022-08-29T03:47:32.381Z,4.68
2022-08-29T03:49:58.982Z,4.57
2022-08-29T03:52:25.587Z,4.65
2022-08-29T03:54:53.178Z,5.03
2022-08-29T03:57:19.749Z,4.05
2022-08-29T03:59:48.164Z,4.53
2022-08-29T04:02:20.624Z,4.78
2022-08-29T04:05:07.991Z,4.70
2022-08-29T04:07:44.367Z,4.25
2022-08-29T04:10:14.384Z,3.47
2022-08-29T04:15:08.304Z,3.28
2022-08-29T04:17:35.723Z,3.72
2022-08-29T04:20:04.350Z,3.78
2022-08-29T04:22:31.183Z,3.65
2022-08-29T04:24:57.725Z,3.30
2022-08-29T04:27:24.484Z,3.70
2022-08-29T04:29:51.115Z,4.07
2022-08-29T04:32:17.914Z,3.10
2022-08-29T04:34:44.499Z,4.20
2022-08-29T04:37:11.103Z,3.00
2022-08-29T04:39:37.964Z,3.95
2022-08-29T04:42:04.649Z,3.33
2022-08-29T04:44:31.231Z,3.33
2022-08-29T04:46:57.759Z,3.63
2022-08-29T04:49:24.386Z,4.15
2022-08-29T04:51:53.557Z,3.95
2022-08-29T04:54:20.162Z,3.28
2022-08-29T04:56:47.341Z,3.08
2022-08-29T04:59:14.794Z,2.70
2022-08-29T05:01:42.421Z,3.30
2022-08-29T05:04:14.222Z,2.60
2022-08-29T05:06:41.312Z,3.30
2022-08-29T05:09:07.872Z,2.30
2022-08-29T05:11:34.509Z,2.42
2022-08-29T05:14:02.493Z,2.50
2022-08-29T05:16:30.663Z,2.80
2022-08-29T05:19:00.038Z,2.85
2022-08-29T05:21:34.157Z,2.95
2022-08-29T05:24:07.104Z,3.17
2022-08-29T05:26:37.203Z,2.97
2022-08-29T05:29:08.571Z,3.55
2022-08-29T05:31:36.792Z,3.67
2022-08-29T05:34:11.220Z,3.20
2022-08-29T05:36:51.660Z,3.50
2022-08-29T05:39:18.197Z,3.47
2022-08-29T05:41:44.712Z,3.38
2022-08-29T05:44:11.264Z,2.85
2022-08-29T05:46:37.851Z,3.03
2022-08-29T05:49:05.749Z,3.38
2022-08-29T05:51:37.217Z,3.15
2022-08-29T05:54:06.328Z,3.03
2022-08-29T05:56:32.889Z,3.28
2022-08-29T05:58:59.442Z,3.08
2022-08-29T06:01:29.163Z,3.30
2022-08-29T06:04:00.674Z,2.78
2022-08-29T06:06:28.926Z,2.65
2022-08-29T06:08:56.983Z,2.40
2022-08-29T06:11:28.148Z,2.83
2022-08-29T06:13:55.398Z,2.15
2022-08-29T06:16:24.410Z,2.35
2022-08-29T06:18:51.357Z,2.97
2022-08-29T06:21:18.510Z,2.70
2022-08-29T06:23:45.984Z,2.20
2022-08-29T06:26:13.552Z,2.08
2022-08-29T06:28:45.302Z,2.63
2022-08-29T06:31:17.802Z,2.38
2022-08-29T06:33:44.395Z,2.65
2022-08-29T06:36:12.434Z,2.75
2022-08-29T06:38:39.640Z,2.30
2022-08-29T06:41:09.488Z,2.42
2022-08-29T06:43:36.178Z,2.00
2022-08-29T06:46:04.748Z,1.88
2022-08-29T06:48:31.400Z,1.90
2022-08-29T06:51:01.773Z,2.08
2022-08-29T06:53:32.092Z,2.35
2022-08-29T06:56:05.330Z,2.42
2022-08-29T06:58:32.556Z,2.30
2022-08-29T07:00:59.243Z,2.58
2022-08-29T07:03:25.831Z,1.92
2022-08-29T07:05:53.691Z,1.55
2022-08-29T07:08:21.297Z,2.15
2022-08-29T07:10:47.948Z,2.13
2022-08-29T07:13:14.606Z,2.70
2022-08-29T07:15:41.648Z,2.30
2022-08-29T07:18:08.335Z,2.55
2022-08-29T07:20:35.014Z,2.38
2022-08-29T07:23:01.615Z,2.17
2022-08-29T07:25:28.282Z,2.10
2022-08-29T07:27:54.824Z,2.38
2022-08-29T07:30:21.415Z,2.47
2022-08-29T07:32:48.022Z,2.05
2022-08-29T07:35:18.600Z,2.63
2022-08-29T07:37:52.794Z,1.90
2022-08-29T07:40:19.685Z,1.90
2022-08-29T07:42:46.271Z,2.63
2022-08-29T07:45:13.406Z,2.45
2022-08-29T07:47:39.924Z,2.35
2022-08-29T07:50:09.407Z,2.95
2022-08-29T07:52:36.615Z,2.38
2022-08-29T07:55:04.983Z,2.22
2022-08-29T07:57:32.281Z,2.00
2022-08-29T08:00:04.742Z,2.38
2022-08-29T08:02:31.519Z,2.30
2022-08-29T08:04:58.721Z,2.97
2022-08-29T08:07:29.418Z,2.80
2022-08-29T08:09:56.281Z,2.53
2022-08-29T08:12:25.644Z,2.60
2022-08-29T08:14:52.249Z,2.95
2022-08-29T08:17:18.743Z,2.70
2022-08-29T08:19:45.324Z,2.85
2022-08-29T08:22:11.958Z,3.28
2022-08-29T08:24:38.468Z,3.85
2022-08-29T08:27:05.346Z,3.85
2022-08-29T08:29:31.904Z,4.15
2022-08-29T08:31:59.850Z,4.35
2022-08-29T08:34:29.087Z,4.70
2022-08-29T08:36:55.843Z,5.40
2022-08-29T08:39:22.543Z,5.97
2022-08-29T08:42:00.341Z,5.75
2022-08-29T08:44:38.559Z,5.60
2022-08-29T08:47:07.783Z,5.40
2022-08-29T08:49:51.744Z,5.97
2022-08-29T08:52:29.037Z,8.90
2022-08-29T08:55:01.854Z,9.10
2022-08-29T08:57:37.429Z,9.15
2022-08-29T09:00:05.701Z,8.13
2022-08-29T09:02:54.712Z,7.03
2022-08-29T09:05:49.110Z,6.47
2022-08-29T09:08:36.303Z,5.95
2022-08-29T09:11:27.140Z,5.65
2022-08-29T09:14:01.096Z,5.30
2022-08-29T09:16:37.541Z,5.45
2022-08-29T09:19:06.948Z,4.93
2022-08-29T09:24:18.463Z,4.65
2022-08-29T09:26:45.013Z,5.55
2022-08-29T09:29:13.938Z,5.30
2022-08-29T09:31:41.049Z,5.53
2022-08-29T09:34:12.799Z,5.05
2022-08-29T09:36:47.458Z,4.57
2022-08-29T09:39:17.242Z,4.60
2022-08-29T09:41:45.799Z,4.05
2022-08-29T09:44:19.234Z,3.80
2022-08-29T09:46:45.842Z,4.38
2022-08-29T09:49:17.603Z,4.50
2022-08-29T09:51:49.125Z,3.80
2022-08-29T09:54:18.697Z,4.20
2022-08-29T09:57:09.023Z,4.57
2022-08-29T09:59:39.761Z,4.05
2022-08-29T10:02:25.635Z,4.38
2022-08-29T10:05:12.954Z,4.70
2022-08-29T10:07:51.670Z,3.85
2022-08-29T10:10:19.946Z,4.00
2022-08-29T10:12:46.474Z,3.25
2022-08-29T10:15:39.827Z,4.57
2022-08-29T10:18:35.613Z,3.67
2022-08-29T10:21:07.689Z,3.17
2022-08-29T10:23:48.805Z,4.20
2022-08-29T10:26:28.063Z,3.75
2022-08-29T10:29:29.633Z,3.90
2022-08-29T10:32:16.057Z,4.18
2022-08-29T10:34:57.082Z,3.38
2022-08-29T10:37:33.696Z,4.22
2022-08-29T10:40:00.255Z,3.78
2022-08-29T10:42:31.126Z,4.13
2022-08-29T10:45:13.721Z,4.20
2022-08-29T10:48:21.884Z,4.45
2022-08-29T10:50:53.338Z,3.92
2022-08-29T10:53:40.687Z,4.03
2022-08-29T10:56:19.407Z,4.28
2022-08-29T10:59:18.525Z,3.22
2022-08-29T11:01:57.592Z,3.92
2022-08-29T11:04:33.196Z,3.30
2022-08-29T11:07:11.576Z,3.22
2022-08-29T11:09:47.381Z,3.55
2022-08-29T11:12:41.104Z,3.75
2022-08-29T11:15:26.137Z,2.85
2022-08-29T11:18:07.278Z,3.20
2022-08-29T11:20:42.302Z,2.70
2022-08-29T11:23:25.137Z,2.60
2022-08-29T11:25:52.128Z,2.50
2022-08-29T11:28:23.118Z,3.20
2022-08-29T11:30:58.417Z,3.20
2022-08-29T11:33:39.623Z,2.70
2022-08-29T11:36:30.790Z,2.70
2022-08-29T11:39:18.062Z,2.35
2022-08-29T11:41:55.194Z,3.08
2022-08-29T11:44:28.926Z,3.17
2022-08-29T11:46:56.611Z,2.40
2022-08-29T11:51:55.337Z,2.60
2022-08-29T11:54:25.279Z,2.47
2022-08-29T11:57:12.100Z,2.20
2022-08-29T11:59:56.789Z,3.00
2022-08-29T12:02:32.540Z,2.78
2022-08-29T12:05:07.647Z,2.58
2022-08-29T12:07:48.911Z,3.03
2022-08-29T12:10:23.555Z,2.38
2022-08-29T12:12:52.490Z,2.95
2022-08-29T12:15:27.921Z,2.58
2022-08-29T12:18:02.458Z,2.05
2022-08-29T12:20:30.048Z,2.40
2022-08-29T12:23:03.556Z,3.15
2022-08-29T12:25:35.840Z,2.88
2022-08-29T12:28:23.895Z,2.25
2022-08-29T12:31:04.279Z,2.47
2022-08-29T12:33:49.118Z,2.70
2022-08-29T12:36:35.725Z,2.20
2022-08-29T12:39:27.052Z,2.15
2022-08-29T12:42:23.199Z,1.98
2022-08-29T12:45:03.404Z,2.22
2022-08-29T12:47:45.790Z,2.45
2022-08-29T12:50:24.002Z,2.20
2022-08-29T12:53:07.373Z,2.53
2022-08-29T12:55:35.412Z,2.40
2022-08-29T12:58:01.994Z,2.15
2022-08-29T13:00:32.058Z,2.17
2022-08-29T13:03:20.002Z,1.90
2022-08-29T13:05:47.543Z,2.00
2022-08-29T13:08:37.241Z,2.05
2022-08-29T13:11:11.507Z,2.22
2022-08-29T13:13:38.792Z,2.47
2022-08-29T13:16:08.109Z,2.63
2022-08-29T13:18:44.626Z,2.22
2022-08-29T13:21:34.035Z,2.50
2022-08-29T13:24:19.747Z,2.50
2022-08-29T13:27:04.273Z,2.47
2022-08-29T13:29:41.982Z,2.92
2022-08-29T13:32:23.245Z,2.50
2022-08-29T13:35:13.067Z,2.92
2022-08-29T13:37:42.643Z,2.38
2022-08-29T13:40:42.606Z,2.75
2022-08-29T13:43:25.723Z,2.25
2022-08-29T13:46:22.294Z,3.05
2022-08-29T13:48:58.414Z,2.42
2022-08-29T13:51:25.006Z,2.92
2022-08-29T13:53:55.631Z,2.30
2022-08-29T13:56:33.515Z,2.42
2022-08-29T13:59:00.388Z,2.50
2022-08-29T14:01:30.835Z,2.50
2022-08-29T14:04:37.020Z,2.25
2022-08-29T14:07:01.058Z,2.70
2022-08-29T14:09:42.316Z,2.50
2022-08-29T14:12:09.771Z,3.25
2022-08-29T14:14:36.505Z,2.58
2022-08-29T14:17:03.148Z,3.65
2022-08-29T14:19:30.536Z,3.05
2022-08-29T14:22:00.548Z,3.33
2022-08-29T14:24:30.547Z,3.20
2022-08-29T14:27:01.378Z,2.60
2022-08-29T14:29:30.725Z,2.92
2022-08-29T14:31:58.219Z,2.72
2022-08-29T14:34:25.262Z,2.50
2022-08-29T14:36:57.144Z,2.95
2022-08-29T14:39:26.403Z,2.88
2022-08-29T14:44:21.765Z,2.80
2022-08-29T14:46:48.772Z,2.90
2022-08-29T14:49:15.403Z,2.78
2022-08-29T14:51:42.107Z,2.65
2022-08-29T14:54:09.184Z,2.47
2022-08-29T14:59:22.312Z,2.70
2022-08-29T15:01:54.170Z,3.58
2022-08-29T15:04:35.866Z,3.20
2022-08-29T15:07:05.796Z,3.05
2022-08-29T15:09:32.923Z,3.15
2022-08-29T15:11:59.687Z,2.90
2022-08-29T15:14:26.235Z,3.20
2022-08-29T15:16:53.045Z,3.13
2022-08-29T15:22:07.735Z,2.67
2022-08-29T15:24:34.501Z,2.63
2022-08-29T15:27:01.193Z,2.70
2022-08-29T15:29:28.024Z,3.28
2022-08-29T15:31:57.298Z,3.03
2022-08-29T15:34:28.602Z,3.03
2022-08-29T15:37:10.752Z,3.55
2022-08-29T15:59:57.963Z,2.78
2022-08-29T16:23:28.285Z,2.92
2022-08-29T16:25:54.970Z,3.55
2022-08-29T16:28:21.805Z,2.88
2022-08-29T16:30:49.803Z,3.28
2022-08-29T16:33:16.427Z,2.88
2022-08-29T16:35:43.584Z,3.63
2022-08-29T16:38:11.081Z,3.38
2022-08-29T16:52:36.918Z,3.03
2022-08-29T16:55:05.351Z,3.40
2022-08-29T16:57:31.865Z,3.20
2022-08-29T17:07:35.999Z,2.83
2022-08-29T17:10:53.601Z,3.42
2022-08-29T17:13:35.279Z,3.13
2022-08-29T17:16:14.033Z,3.47
2022-08-29T17:18:41.647Z,3.53
2022-08-29T17:21:08.622Z,3.30
2022-08-29T17:23:36.080Z,3.10
2022-08-29T17:26:06.608Z,3.75
2022-08-29T17:28:33.797Z,3.15
2022-08-29T17:31:00.586Z,3.33
2022-08-29T17:33:28.000Z,2.85
2022-08-29T17:35:55.972Z,3.70
2022-08-29T17:38:23.231Z,2.90
2022-08-29T17:40:50.945Z,3.50
2022-08-29T17:43:19.226Z,3.72
2022-08-29T17:45:46.462Z,3.47
2022-08-29T17:48:13.304Z,3.58
2022-08-29T17:50:40.474Z,3.60
2022-08-29T17:53:07.051Z,4.15
2022-08-29T17:55:33.643Z,4.03
2022-08-29T17:58:00.247Z,3.55
2022-08-29T18:00:27.179Z,3.17
2022-08-29T18:02:53.797Z,4.43
2022-08-29T18:05:20.557Z,4.00
2022-08-29T18:07:47.131Z,4.22
2022-08-29T18:10:15.872Z,4.18
2022-08-29T18:12:42.666Z,4.07
2022-08-29T18:15:10.203Z,4.20
2022-08-29T18:17:38.054Z,4.00
2022-08-29T18:23:54.520Z,5.20
2022-08-29T18:26:23.853Z,3.92
2022-08-29T18:28:50.507Z,4.78
2022-08-29T18:31:18.848Z,4.47
2022-08-29T18:34:00.096Z,4.55
2022-08-29T18:36:28.673Z,4.72
2022-08-29T18:38:55.281Z,5.13
2022-08-29T18:41:21.851Z,5.15
2022-08-29T18:43:48.420Z,6.22
2022-08-29T18:46:15.077Z,4.90
2022-08-29T18:48:44.747Z,5.20
2022-08-29T18:51:11.542Z,4.35
2022-08-29T18:53:39.736Z,6.13
2022-08-29T18:56:06.883Z,5.72
2022-08-29T18:58:34.430Z,5.57
2022-08-29T19:01:14.942Z,5.80
2022-08-29T19:03:41.788Z,4.97
2022-08-29T19:06:08.384Z,6.05
2022-08-29T19:08:36.300Z,5.70
2022-08-29T19:11:03.921Z,5.32
2022-08-29T19:13:30.692Z,5.78
2022-08-29T19:15:59.074Z,6.25
2022-08-29T19:18:26.549Z,6.18
2022-08-29T19:21:02.604Z,6.07
2022-08-29T19:23:32.719Z,5.88
2022-08-29T19:26:00.675Z,6.20
2022-08-29T19:28:27.577Z,6.00
2022-08-29T19:30:54.618Z,5.75
2022-08-29T19:33:21.273Z,5.78
2022-08-29T19:35:51.126Z,6.20
2022-08-29T19:38:19.797Z,6.35
2022-08-29T19:40:48.429Z,6.25
2022-08-29T19:43:15.704Z,5.72
2022-08-29T19:45:44.252Z,5.75
2022-08-29T19:48:15.256Z,6.03
2022-08-29T19:50:42.958Z,6.00
2022-08-29T19:53:21.492Z,5.78
2022-08-29T19:55:53.471Z,5.90
2022-08-29T19:58:20.011Z,5.95
2022-08-29T20:00:46.815Z,5.63
2022-08-29T20:03:14.978Z,5.78
2022-08-29T20:05:41.706Z,6.00
2022-08-29T20:08:09.394Z,5.78
2022-08-29T20:10:36.682Z,6.43
2022-08-29T20:13:03.936Z,5.80
2022-08-29T20:15:31.046Z,6.53
2022-08-29T20:18:00.029Z,6.38
2022-08-29T20:20:31.116Z,5.95
2022-08-29T20:22:57.728Z,5.57
2022-08-29T20:25:24.920Z,5.75
2022-08-29T20:27:52.932Z,7.00
2022-08-29T20:30:24.439Z,6.47
2022-08-29T20:32:51.901Z,6.70
2022-08-29T20:35:39.179Z,5.93
2022-08-29T20:38:06.767Z,6.53
2022-08-29T20:40:37.554Z,6.00
2022-08-29T20:43:04.692Z,6.25
2022-08-29T20:45:31.231Z,5.57
2022-08-29T20:47:58.189Z,5.57
2022-08-29T20:50:25.465Z,6.40
2022-08-29T20:52:53.929Z,5.75
2022-08-29T20:55:20.776Z,6.45
2022-08-29T20:57:47.548Z,6.03
2022-08-29T21:00:14.650Z,6.68
2022-08-29T21:03:00.062Z,6.30
2022-08-29T21:05:42.968Z,6.65
2022-08-29T21:08:16.009Z,6.95
2022-08-29T21:10:43.664Z,6.10
2022-08-29T21:13:10.779Z,6.22
2022-08-29T21:15:39.491Z,6.50
2022-08-29T21:18:06.344Z,7.05
2022-08-29T21:20:36.998Z,6.55
2022-08-29T21:23:08.518Z,6.00
2022-08-29T21:25:35.483Z,6.53
2022-08-29T21:28:03.542Z,6.15
2022-08-29T21:30:33.971Z,6.28
2022-08-29T21:33:00.769Z,6.25
2022-08-29T21:35:27.309Z,6.80
2022-08-29T21:37:54.213Z,6.00
2022-08-29T21:40:25.748Z,6.78
2022-08-29T21:42:54.800Z,6.13
2022-08-29T21:45:23.003Z,6.05
2022-08-29T21:47:54.466Z,6.03
2022-08-29T21:50:22.531Z,6.28
2022-08-29T21:52:49.571Z,6.65
2022-08-29T21:55:18.087Z,5.88
2022-08-29T21:57:59.656Z,6.53
2022-08-29T22:00:32.385Z,7.20
2022-08-29T22:03:05.304Z,6.15
2022-08-29T22:05:32.193Z,6.63
2022-08-29T22:07:59.160Z,6.63
2022-08-29T22:10:28.780Z,6.78
2022-08-29T22:12:55.370Z,7.45
2022-08-29T22:15:40.509Z,6.07
2022-08-29T22:18:08.670Z,6.63
2022-08-29T22:20:37.660Z,6.35
2022-08-29T22:23:05.555Z,6.13
2022-08-29T22:25:32.439Z,6.38
2022-08-29T22:27:59.037Z,5.95
2022-08-29T22:30:28.788Z,6.07
2022-08-29T22:33:00.462Z,6.78
2022-08-29T22:35:27.806Z,6.57
2022-08-29T22:37:54.687Z,6.50
2022-08-29T22:40:21.673Z,6.65
2022-08-29T22:42:48.328Z,6.22
2022-08-29T22:45:16.657Z,6.22
2022-08-29T22:47:44.571Z,6.90
2022-08-29T22:50:18.709Z,6.43
2022-08-29T22:52:45.890Z,6.25
2022-08-29T22:55:15.943Z,6.18
2022-08-29T23:00:17.531Z,6.53
2022-08-29T23:02:44.188Z,6.15
2022-08-29T23:05:11.259Z,6.65
2022-08-29T23:07:38.047Z,6.88
2022-08-29T23:10:07.583Z,6.78
2022-08-29T23:12:37.657Z,6.28
2022-08-29T23:22:03.856Z,6.15
2022-08-29T23:24:31.884Z,6.45
2022-08-29T23:26:59.097Z,6.63
2022-08-29T23:29:26.693Z,6.30
2022-08-29T23:31:53.790Z,6.65
2022-08-29T23:34:20.318Z,6.20
2022-08-29T23:36:46.852Z,6.72
2022-08-29T23:39:13.440Z,5.57
2022-08-29T23:41:40.332Z,5.55
2022-08-29T23:44:07.046Z,5.95
2022-08-29T23:46:33.699Z,5.82
2022-08-29T23:49:00.424Z,6.00
2022-08-29T23:51:26.973Z,5.75
2022-08-29T23:53:53.504Z,6.18
2022-08-29T23:56:21.427Z,5.70
2022-08-29T23:58:48.764Z,5.18
